Weather at Luxembourg-Findel International Airport

Public forecast

Using degrees Celsius for public forecast. Weather courtesy of forecast.io.

Current aviation weather report (METAR) for Luxembourg-Findel International Airport

Retrieved 2021/06/12 20:20 UTC (38 minutes ago):

ELLX 122020Z 34006KT 9999 FEW035 18/12 Q1024 NOSIG

Aviation forecast (TAF) for Luxembourg-Findel International Airport

Retrieved 2021/06/12 18:27 UTC (3 hours ago):

TAF ELLX 121700Z 1218/1324 36007KT CAVOK TEMPO 1309/1313 FEW040